createdAt,value
2022-10-23T00:02:17.842Z,95810.63
2022-10-23T00:04:47.281Z,95807.59
2022-10-23T00:07:17.033Z,95804.28
2022-10-23T00:09:46.685Z,95808.25
2022-10-23T00:12:17.446Z,95798.28
2022-10-23T00:14:48.570Z,95803.31
2022-10-23T00:17:18.315Z,95804.59
2022-10-23T00:19:50.539Z,95796.47
2022-10-23T00:22:23.293Z,95802.06
2022-10-23T00:24:53.252Z,95799.53
2022-10-23T00:27:25.273Z,95798.16
2022-10-23T00:29:55.062Z,95802.09
2022-10-23T00:32:24.729Z,95799.38
2022-10-23T00:34:56.586Z,95787.53
2022-10-23T00:37:27.103Z,95793.34
2022-10-23T00:39:56.684Z,95789.75
2022-10-23T00:42:27.752Z,95800.44
2022-10-23T00:45:25.766Z,95797.44
2022-10-23T00:47:58.586Z,95804.31
2022-10-23T00:50:32.088Z,95788.75
2022-10-23T00:53:05.500Z,95790.63
2022-10-23T00:55:38.252Z,95789.47
2022-10-23T00:58:10.720Z,95792.88
2022-10-23T01:00:51.398Z,95786.13
2022-10-23T01:03:27.505Z,95786.59
2022-10-23T01:06:09.383Z,95780.91
2022-10-23T01:08:53.198Z,95779.88
2022-10-23T01:11:33.809Z,95783.94
2022-10-23T01:14:18.785Z,95770.56
2022-10-23T01:17:00.168Z,95771.63
2022-10-23T01:19:52.969Z,95769.66
2022-10-23T01:22:54.633Z,95771.75
2022-10-23T01:26:00.920Z,95766.56
2022-10-23T01:28:43.798Z,95775.53
2022-10-23T01:31:24.270Z,95776.69
2022-10-23T01:34:00.767Z,95780.66
2022-10-23T01:36:33.337Z,95775.53
2022-10-23T01:39:09.087Z,95770.66
2022-10-23T01:41:46.691Z,95767.41
2022-10-23T01:44:30.080Z,95765.78
2022-10-23T01:46:59.878Z,95752.34
2022-10-23T01:49:33.480Z,95756.31
2022-10-23T01:52:08.633Z,95760.00
2022-10-23T01:54:44.024Z,95755.25
2022-10-23T01:57:19.294Z,95751.84
2022-10-23T01:59:54.799Z,95746.38
2022-10-23T02:02:25.981Z,95751.97
2022-10-23T02:05:02.877Z,95745.47
2022-10-23T02:07:32.849Z,95732.38
2022-10-23T02:10:03.986Z,95727.81
2022-10-23T02:12:47.758Z,95720.38
2022-10-23T02:15:27.788Z,95720.38
2022-10-23T02:18:10.651Z,95718.28
2022-10-23T02:20:46.907Z,95715.59
2022-10-23T02:23:23.558Z,95707.81
2022-10-23T02:26:04.408Z,95707.75
2022-10-23T02:28:41.633Z,95711.59
2022-10-23T02:31:18.359Z,95712.97
2022-10-23T02:33:48.827Z,95712.84
2022-10-23T02:36:20.692Z,95711.72
2022-10-23T02:38:50.191Z,95718.34
2022-10-23T02:41:34.601Z,95712.66
2022-10-23T02:44:23.458Z,95705.34
2022-10-23T02:47:08.771Z,95705.00
2022-10-23T02:49:46.561Z,95698.03
2022-10-23T02:52:28.534Z,95696.66
2022-10-23T02:55:16.083Z,95699.78
2022-10-23T02:57:57.658Z,95694.91
2022-10-23T03:00:29.206Z,95697.00
2022-10-23T03:03:04.472Z,95702.34
2022-10-23T03:05:38.924Z,95691.09
2022-10-23T03:08:10.944Z,95694.81
2022-10-23T03:10:41.736Z,95695.06
2022-10-23T03:13:12.373Z,95688.91
2022-10-23T03:15:44.529Z,95684.16
2022-10-23T03:18:17.736Z,95688.91
2022-10-23T03:20:50.425Z,95689.13
2022-10-23T03:23:19.809Z,95680.22
2022-10-23T03:25:50.706Z,95687.88
2022-10-23T03:28:34.083Z,95687.75
2022-10-23T03:31:04.160Z,95690.88
2022-10-23T03:33:35.122Z,95694.25
2022-10-23T03:36:11.513Z,95686.81
2022-10-23T03:38:41.049Z,95694.81
2022-10-23T03:41:10.454Z,95688.13
2022-10-23T03:43:39.842Z,95691.34
2022-10-23T03:46:12.581Z,95686.25
2022-10-23T03:48:43.344Z,95689.97
2022-10-23T03:51:13.344Z,95676.41
2022-10-23T03:53:43.536Z,95670.09
2022-10-23T03:56:12.930Z,95675.91
2022-10-23T03:58:42.529Z,95671.25
2022-10-23T04:01:12.005Z,95678.81
2022-10-23T04:03:42.857Z,95672.66
2022-10-23T04:06:12.356Z,95674.50
2022-10-23T04:08:44.151Z,95677.41
2022-10-23T04:11:18.512Z,95679.84
2022-10-23T04:13:48.725Z,95675.56
2022-10-23T04:16:18.208Z,95665.94
2022-10-23T04:18:49.117Z,95666.75
2022-10-23T04:21:18.857Z,95672.53
2022-10-23T04:23:48.338Z,95674.41
2022-10-23T04:26:20.164Z,95678.94
2022-10-23T04:28:50.623Z,95678.13
2022-10-23T04:31:20.062Z,95678.94
2022-10-23T04:33:50.806Z,95678.94
2022-10-23T04:36:31.377Z,95686.34
2022-10-23T04:39:07.537Z,95677.19
2022-10-23T04:41:38.817Z,95678.00
2022-10-23T04:44:09.050Z,95678.81
2022-10-23T04:46:41.728Z,95668.94
2022-10-23T04:49:13.804Z,95666.84
2022-10-23T04:51:50.633Z,95657.56
2022-10-23T04:54:39.238Z,95660.81
2022-10-23T04:57:23.955Z,95652.34
2022-10-23T05:00:10.282Z,95641.22
2022-10-23T05:02:50.714Z,95643.63
2022-10-23T05:05:21.829Z,95646.28
2022-10-23T05:08:02.979Z,95645.25
2022-10-23T05:10:50.522Z,95639.66
2022-10-23T05:13:21.065Z,95639.44
2022-10-23T05:15:53.019Z,95644.44
2022-10-23T05:18:26.921Z,95648.72
2022-10-23T05:21:07.638Z,95643.63
2022-10-23T05:23:39.727Z,95646.53
2022-10-23T05:26:09.460Z,95635.53
2022-10-23T05:28:43.389Z,95642.25
2022-10-23T05:31:17.162Z,95640.13
2022-10-23T05:33:52.721Z,95648.47
2022-10-23T05:36:26.397Z,95642.69
2022-10-23T05:39:00.252Z,95640.59
2022-10-23T05:41:33.795Z,95644.88
2022-10-23T05:44:06.393Z,95642.69
2022-10-23T05:47:03.179Z,95647.44
2022-10-23T05:50:01.628Z,95641.06
2022-10-23T05:53:02.100Z,95644.69
2022-10-23T05:55:39.232Z,95650.16
2022-10-23T05:58:33.459Z,95641.22
2022-10-23T06:01:23.275Z,95648.88
2022-10-23T06:04:04.685Z,95647.13
2022-10-23T06:07:21.138Z,95645.16
2022-10-23T06:10:04.165Z,95648.09
2022-10-23T06:12:34.213Z,95654.25
2022-10-23T06:15:10.355Z,95648.41
2022-10-23T06:18:07.869Z,95648.19
2022-10-23T06:20:41.721Z,95653.28
2022-10-23T06:23:16.477Z,95651.44
2022-10-23T06:26:10.872Z,95648.53
2022-10-23T06:28:51.682Z,95632.88
2022-10-23T06:31:29.139Z,95634.84
2022-10-23T06:34:01.312Z,95644.00
2022-10-23T06:36:32.643Z,95628.78
2022-10-23T06:39:10.479Z,95639.00
2022-10-23T06:42:08.161Z,95639.09
2022-10-23T06:44:56.293Z,95645.13
2022-10-23T06:47:44.809Z,95654.84
2022-10-23T06:50:15.688Z,95654.50
2022-10-23T06:52:47.950Z,95658.06
2022-10-23T06:55:21.280Z,95664.06
2022-10-23T06:57:53.168Z,95665.00
2022-10-23T07:00:22.787Z,95666.75
2022-10-23T07:02:54.598Z,95661.00
2022-10-23T07:05:28.281Z,95650.75
2022-10-23T07:07:58.827Z,95652.59
2022-10-23T07:10:31.485Z,95649.03
2022-10-23T07:13:04.502Z,95644.91
2022-10-23T07:15:40.517Z,95637.66
2022-10-23T07:18:15.194Z,95640.47
2022-10-23T07:21:07.690Z,95637.25
2022-10-23T07:23:37.473Z,95639.25
2022-10-23T07:26:11.741Z,95633.00
2022-10-23T07:28:44.573Z,95636.91
2022-10-23T07:31:15.547Z,95638.66
2022-10-23T07:34:13.822Z,95651.44
2022-10-23T07:36:44.117Z,95664.94
2022-10-23T07:39:14.013Z,95647.91
2022-10-23T07:41:50.349Z,95661.13
2022-10-23T07:44:24.334Z,95653.44
2022-10-23T07:46:57.940Z,95645.22
2022-10-23T07:49:28.149Z,95641.31
2022-10-23T07:51:58.750Z,95636.56
2022-10-23T07:54:35.459Z,95632.13
2022-10-23T07:57:08.002Z,95638.97
2022-10-23T07:59:46.544Z,95637.75
2022-10-23T08:02:19.159Z,95632.28
2022-10-23T08:04:51.178Z,95639.09
2022-10-23T08:07:37.857Z,95627.69
2022-10-23T08:10:10.102Z,95627.81
2022-10-23T08:12:41.954Z,95629.25
2022-10-23T08:15:13.283Z,95628.56
2022-10-23T08:17:54.574Z,95631.06
2022-10-23T08:20:40.767Z,95629.53
2022-10-23T08:23:13.288Z,95620.22
2022-10-23T08:25:42.845Z,95617.06
2022-10-23T08:28:13.333Z,95619.25
2022-10-23T08:30:54.610Z,95619.84
2022-10-23T08:33:24.834Z,95622.84
2022-10-23T08:35:54.301Z,95617.25
2022-10-23T08:38:31.648Z,95611.38
2022-10-23T08:41:02.729Z,95613.56
2022-10-23T08:43:48.881Z,95616.53
2022-10-23T08:46:35.704Z,95607.94
2022-10-23T08:49:45.185Z,95597.19
2022-10-23T08:52:23.270Z,95596.66
2022-10-23T08:55:13.803Z,95590.69
2022-10-23T08:57:53.032Z,95593.91
2022-10-23T09:00:22.497Z,95589.03
2022-10-23T09:02:55.255Z,95582.81
2022-10-23T09:05:33.280Z,95584.41
2022-10-23T09:08:35.484Z,95579.22
2022-10-23T09:11:09.263Z,95581.09
2022-10-23T09:14:39.865Z,95579.97
2022-10-23T09:17:24.857Z,95588.28
2022-10-23T09:20:11.558Z,95591.72
2022-10-23T09:22:42.149Z,95580.59
2022-10-23T09:25:13.061Z,95588.38
2022-10-23T09:27:51.898Z,95576.13
2022-10-23T09:30:35.346Z,95575.50
2022-10-23T09:33:21.639Z,95579.72
2022-10-23T09:36:01.326Z,95572.66
2022-10-23T09:38:34.336Z,95569.56
2022-10-23T09:41:08.919Z,95565.44
2022-10-23T09:43:38.224Z,95563.47
2022-10-23T09:46:11.890Z,95561.47
2022-10-23T09:48:42.188Z,95562.19
2022-10-23T09:51:22.113Z,95548.59
2022-10-23T09:53:56.029Z,95548.72
2022-10-23T09:56:32.013Z,95542.13
2022-10-23T09:59:05.908Z,95538.50
2022-10-23T10:01:46.999Z,95537.56
2022-10-23T10:04:40.067Z,95541.75
2022-10-23T10:07:22.832Z,95541.88
2022-10-23T10:09:54.368Z,95543.94
2022-10-23T10:12:48.418Z,95544.91
2022-10-23T10:15:27.846Z,95553.47
2022-10-23T10:18:14.114Z,95551.19
2022-10-23T10:21:03.553Z,95544.53
2022-10-23T10:23:48.206Z,95535.19
2022-10-23T10:26:37.558Z,95535.53
2022-10-23T10:29:30.001Z,95532.09
2022-10-23T10:32:17.983Z,95536.22
2022-10-23T10:35:03.716Z,95524.91
2022-10-23T10:38:08.853Z,95519.28
2022-10-23T10:40:46.767Z,95517.41
2022-10-23T10:43:33.390Z,95506.88
2022-10-23T10:46:13.639Z,95506.69
2022-10-23T10:48:50.907Z,95499.19
2022-10-23T10:51:31.553Z,95498.16
2022-10-23T10:54:23.004Z,95492.53
2022-10-23T10:56:54.799Z,95485.28
2022-10-23T10:59:30.456Z,95491.28
2022-10-23T11:02:16.628Z,95482.13
2022-10-23T11:04:53.263Z,95478.34
2022-10-23T11:07:28.840Z,95483.34
2022-10-23T11:10:01.541Z,95484.25
2022-10-23T11:12:32.627Z,95478.88
2022-10-23T11:15:02.069Z,95472.38
2022-10-23T11:17:39.750Z,95469.44
2022-10-23T11:20:35.408Z,95457.50
2022-10-23T11:23:32.623Z,95459.50
2022-10-23T11:26:21.246Z,95465.97
2022-10-23T11:29:20.121Z,95468.09
2022-10-23T11:32:11.054Z,95464.50
2022-10-23T11:35:15.874Z,95454.28
2022-10-23T11:37:45.611Z,95454.81
2022-10-23T11:40:25.071Z,95447.50
2022-10-23T11:42:54.709Z,95433.59
2022-10-23T11:45:38.930Z,95431.72
2022-10-23T11:48:36.592Z,95434.16
2022-10-23T11:51:25.601Z,95434.31
2022-10-23T11:54:06.401Z,95425.03
2022-10-23T11:56:35.918Z,95426.31
2022-10-23T11:59:26.824Z,95430.00
2022-10-23T12:02:01.597Z,95419.25
2022-10-23T12:04:46.336Z,95420.84
2022-10-23T12:07:24.685Z,95419.72
2022-10-23T12:09:59.236Z,95427.56
2022-10-23T12:12:35.155Z,95412.81
2022-10-23T12:15:26.182Z,95411.78
2022-10-23T12:18:09.898Z,95399.72
2022-10-23T12:20:48.276Z,95396.34
2022-10-23T12:23:50.882Z,95397.47
2022-10-23T12:27:02.954Z,95388.75
2022-10-23T12:30:13.136Z,95390.97
2022-10-23T12:33:12.696Z,95394.59
2022-10-23T12:36:25.748Z,95387.28
2022-10-23T12:38:58.468Z,95383.44
2022-10-23T12:41:29.311Z,95378.56
2022-10-23T12:44:03.165Z,95382.03
2022-10-23T12:46:35.998Z,95381.69
2022-10-23T12:49:18.909Z,95372.19
2022-10-23T12:52:00.897Z,95372.94
2022-10-23T12:54:33.923Z,95376.50
2022-10-23T12:57:03.375Z,95373.78
2022-10-23T12:59:39.486Z,95364.63
2022-10-23T13:02:24.828Z,95361.72
2022-10-23T13:04:59.585Z,95351.38
2022-10-23T13:07:33.329Z,95358.22
2022-10-23T13:10:06.475Z,95355.06
2022-10-23T13:15:21.076Z,95353.09
2022-10-23T13:18:03.797Z,95357.13
2022-10-23T13:20:36.693Z,95348.88
2022-10-23T13:23:18.504Z,95343.28
2022-10-23T13:25:55.884Z,95342.94
2022-10-23T13:28:28.934Z,95336.75
2022-10-23T13:31:25.704Z,95333.38
2022-10-23T13:34:17.622Z,95331.84
2022-10-23T13:37:03.417Z,95327.56
2022-10-23T13:39:35.478Z,95334.91
2022-10-23T13:42:15.026Z,95338.19
2022-10-23T13:44:44.609Z,95325.81
2022-10-23T13:47:15.710Z,95323.59
2022-10-23T13:49:45.141Z,95334.25
2022-10-23T13:52:23.386Z,95334.31
2022-10-23T13:54:52.795Z,95326.78
2022-10-23T13:57:22.193Z,95333.53
2022-10-23T13:59:51.969Z,95331.88
2022-10-23T14:02:24.959Z,95322.28
2022-10-23T14:04:54.457Z,95322.91
2022-10-23T14:07:25.276Z,95328.28
2022-10-23T14:09:54.703Z,95336.78
2022-10-23T14:12:24.204Z,95331.81
2022-10-23T14:14:54.416Z,95323.56
2022-10-23T14:17:23.830Z,95325.88
2022-10-23T14:19:53.202Z,95315.44
2022-10-23T14:22:24.105Z,95317.06
2022-10-23T14:24:53.505Z,95313.06
2022-10-23T14:27:22.889Z,95313.22
2022-10-23T14:29:52.849Z,95313.47
2022-10-23T14:32:22.248Z,95312.00
2022-10-23T14:34:54.745Z,95315.97
2022-10-23T14:37:25.492Z,95322.78
2022-10-23T14:39:54.769Z,95319.47
2022-10-23T14:42:24.466Z,95323.50
2022-10-23T14:44:54.113Z,95312.22
2022-10-23T14:47:23.877Z,95318.63
2022-10-23T14:49:54.491Z,95316.31
2022-10-23T14:52:48.285Z,95310.81
2022-10-23T14:55:17.747Z,95315.03
2022-10-23T14:57:50.229Z,95316.00
2022-10-23T15:00:20.273Z,95312.66
2022-10-23T15:02:49.634Z,95312.91
2022-10-23T15:05:19.292Z,95315.59
2022-10-23T15:07:50.105Z,95311.50
2022-10-23T15:10:19.716Z,95303.56
2022-10-23T15:12:49.560Z,95314.72
2022-10-23T15:15:19.185Z,95311.44
2022-10-23T15:17:48.614Z,95310.72
2022-10-23T15:20:18.278Z,95310.00
2022-10-23T15:22:49.229Z,95307.81
2022-10-23T15:25:18.918Z,95309.44
2022-10-23T15:27:48.391Z,95307.56
2022-10-23T15:30:18.609Z,95303.09
2022-10-23T15:32:48.171Z,95291.59
2022-10-23T15:35:18.003Z,95292.25
2022-10-23T15:37:48.829Z,95281.03
2022-10-23T15:40:18.524Z,95292.59
2022-10-23T15:42:51.630Z,95291.28
2022-10-23T15:45:21.277Z,95292.41
2022-10-23T15:47:51.288Z,95289.81
2022-10-23T15:50:20.709Z,95290.78
2022-10-23T15:52:53.252Z,95282.44
2022-10-23T15:55:22.703Z,95291.50
2022-10-23T15:57:52.087Z,95287.50
2022-10-23T16:00:21.997Z,95285.19
2022-10-23T16:02:51.982Z,95288.00
2022-10-23T16:05:21.423Z,95281.72
2022-10-23T16:07:52.155Z,95283.41
2022-10-23T16:10:21.517Z,95280.59
2022-10-23T16:12:51.175Z,95288.00
2022-10-23T16:15:20.810Z,95284.59
2022-10-23T16:17:50.349Z,95272.06
2022-10-23T16:20:21.005Z,95277.41
2022-10-23T16:22:51.723Z,95280.66
2022-10-23T16:25:24.072Z,95287.41
2022-10-23T16:27:53.756Z,95276.31
2022-10-23T16:30:24.130Z,95271.13
2022-10-23T16:32:54.844Z,95266.41
2022-10-23T16:35:24.847Z,95279.00
2022-10-23T16:38:08.104Z,95272.38
2022-10-23T16:40:37.648Z,95276.59
2022-10-23T16:43:42.397Z,95269.78
2022-10-23T16:46:30.159Z,95277.03
2022-10-23T16:48:59.673Z,95273.72
2022-10-23T16:51:30.312Z,95278.13
2022-10-23T16:54:01.393Z,95276.50
2022-10-23T16:56:32.102Z,95272.03
2022-10-23T16:59:01.578Z,95279.94
2022-10-23T17:01:33.550Z,95276.78
2022-10-23T17:04:03.164Z,95285.41
2022-10-23T17:06:34.240Z,95296.94
2022-10-23T17:09:07.007Z,95296.50
2022-10-23T17:11:40.794Z,95307.22
2022-10-23T17:14:16.096Z,95316.72
2022-10-23T17:16:49.290Z,95318.31
2022-10-23T17:19:43.632Z,95314.94
2022-10-23T17:22:13.626Z,95315.84
2022-10-23T17:24:47.657Z,95325.16
2022-10-23T17:27:20.068Z,95337.06
2022-10-23T17:29:49.501Z,95337.66
2022-10-23T17:32:18.948Z,95348.47
2022-10-23T17:34:48.473Z,95339.03
2022-10-23T17:37:17.978Z,95327.63
2022-10-23T17:39:48.832Z,95329.13
2022-10-23T17:42:18.473Z,95340.81
2022-10-23T17:44:48.069Z,95315.53
2022-10-23T17:47:17.510Z,95336.59
2022-10-23T17:49:47.136Z,95342.81
2022-10-23T17:52:16.691Z,95346.31
2022-10-23T17:54:46.061Z,95334.09
2022-10-23T17:57:16.873Z,95324.81
2022-10-23T17:59:46.278Z,95332.03
2022-10-23T18:02:15.806Z,95338.78
2022-10-23T18:04:45.269Z,95343.66
2022-10-23T18:07:14.664Z,95348.56
2022-10-23T18:09:44.121Z,95343.75
2022-10-23T18:12:13.629Z,95345.72
2022-10-23T18:14:44.398Z,95346.03
2022-10-23T18:17:13.769Z,95353.84
2022-10-23T18:19:43.140Z,95351.22
2022-10-23T18:22:12.612Z,95347.69
2022-10-23T18:24:42.134Z,95351.78
2022-10-23T18:27:11.535Z,95342.06
2022-10-23T18:29:43.361Z,95353.47
2022-10-23T18:32:14.104Z,95341.44
2022-10-23T18:34:43.491Z,95356.56
2022-10-23T18:37:12.908Z,95354.53
2022-10-23T18:39:42.364Z,95362.41
2022-10-23T18:42:11.762Z,95353.34
2022-10-23T18:44:46.832Z,95336.13
2022-10-23T18:47:17.909Z,95332.91
2022-10-23T18:49:47.351Z,95338.59
2022-10-23T18:52:16.730Z,95322.16
2022-10-23T18:54:46.100Z,95337.34
2022-10-23T18:57:15.526Z,95330.91
2022-10-23T18:59:44.885Z,95336.09
2022-10-23T19:02:14.344Z,95343.94
2022-10-23T19:04:45.154Z,95340.00
2022-10-23T19:07:14.754Z,95341.69
2022-10-23T19:09:44.173Z,95351.00
2022-10-23T19:14:48.209Z,95345.50
2022-10-23T19:17:22.386Z,95335.28
2022-10-23T19:19:58.205Z,95335.84
2022-10-23T19:22:30.237Z,95338.03
2022-10-23T19:25:10.192Z,95340.50
2022-10-23T19:27:40.841Z,95346.19
2022-10-23T19:30:13.771Z,95341.34
2022-10-23T19:32:45.007Z,95349.47
2022-10-23T19:35:19.220Z,95340.78
2022-10-23T19:37:48.924Z,95334.31
2022-10-23T19:40:18.604Z,95339.13
2022-10-23T19:42:48.101Z,95337.53
2022-10-23T19:45:17.817Z,95351.81
2022-10-23T19:47:47.821Z,95357.50
2022-10-23T19:50:18.723Z,95348.31
2022-10-23T19:52:48.224Z,95346.13
2022-10-23T19:55:17.884Z,95359.06
2022-10-23T19:57:47.269Z,95349.06
2022-10-23T20:00:17.574Z,95347.69
2022-10-23T20:02:49.076Z,95351.72
2022-10-23T20:05:22.524Z,95341.94
2022-10-23T20:07:52.525Z,95347.56
2022-10-23T20:10:22.170Z,95351.56
2022-10-23T20:12:56.717Z,95355.88
2022-10-23T20:15:26.401Z,95357.59
2022-10-23T20:17:55.771Z,95359.97
2022-10-23T20:20:26.504Z,95376.16
2022-10-23T20:22:56.663Z,95373.78
2022-10-23T20:25:27.741Z,95381.09
2022-10-23T20:27:57.118Z,95400.47
2022-10-23T20:30:26.538Z,95403.13
2022-10-23T20:32:56.793Z,95405.78
2022-10-23T20:35:27.669Z,95404.69
2022-10-23T20:37:57.044Z,95416.53
2022-10-23T20:40:26.448Z,95429.47
2022-10-23T20:42:55.828Z,95433.19
2022-10-23T20:45:25.361Z,95452.84
2022-10-23T20:47:54.744Z,95461.97
2022-10-23T20:50:24.800Z,95464.03
2022-10-23T20:52:55.550Z,95473.19
2022-10-23T20:55:24.942Z,95478.22
2022-10-23T20:57:55.017Z,95471.66
2022-10-23T21:00:24.428Z,95482.25
2022-10-23T21:02:54.007Z,95483.84
2022-10-23T21:05:23.752Z,95484.13
2022-10-23T21:07:53.121Z,95485.50
2022-10-23T21:10:23.850Z,95482.53
2022-10-23T21:12:53.256Z,95491.44
2022-10-23T21:15:22.811Z,95486.31
2022-10-23T21:17:52.332Z,95489.31
2022-10-23T21:20:21.734Z,95486.94
2022-10-23T21:22:55.359Z,95489.63
2022-10-23T21:25:26.212Z,95491.72
2022-10-23T21:27:55.584Z,95501.97
2022-10-23T21:30:25.027Z,95499.25
2022-10-23T21:32:54.485Z,95503.88
2022-10-23T21:35:25.412Z,95504.66
2022-10-23T21:37:57.547Z,95519.00
2022-10-23T21:40:28.389Z,95523.59
2022-10-23T21:42:57.855Z,95534.41
2022-10-23T21:45:27.361Z,95539.00
2022-10-23T21:47:56.875Z,95538.50
2022-10-23T21:50:26.278Z,95540.38
2022-10-23T21:52:56.929Z,95541.47
2022-10-23T21:55:29.717Z,95547.97
2022-10-23T21:57:59.245Z,95548.28
2022-10-23T22:00:28.690Z,95559.03
2022-10-23T22:02:58.054Z,95563.28
2022-10-23T22:05:27.498Z,95581.06
2022-10-23T22:07:56.995Z,95572.34
2022-10-23T22:10:27.813Z,95582.50
2022-10-23T22:12:57.256Z,95599.47
2022-10-23T22:15:26.600Z,95608.00
2022-10-23T22:17:56.177Z,95602.69
2022-10-23T22:20:25.693Z,95596.91
2022-10-23T22:22:55.116Z,95600.88
2022-10-23T22:25:24.520Z,95601.59
2022-10-23T22:27:55.253Z,95596.84
2022-10-23T22:30:24.637Z,95614.13
2022-10-23T22:32:53.997Z,95623.06
2022-10-23T22:35:23.441Z,95615.53
2022-10-23T22:37:52.849Z,95632.56
2022-10-23T22:40:22.180Z,95639.09
2022-10-23T22:42:51.580Z,95640.47
2022-10-23T22:45:22.320Z,95646.63
2022-10-23T22:47:51.685Z,95643.13
2022-10-23T22:50:21.052Z,95634.66
2022-10-23T22:52:50.525Z,95636.69
2022-10-23T22:55:20.023Z,95639.13
2022-10-23T22:57:49.405Z,95631.22
2022-10-23T23:00:20.908Z,95621.09
2022-10-23T23:02:50.391Z,95628.78
2022-10-23T23:05:20.084Z,95634.31
2022-10-23T23:07:49.625Z,95641.34
2022-10-23T23:10:19.105Z,95633.78
2022-10-23T23:12:51.121Z,95637.81
2022-10-23T23:15:21.866Z,95631.88
2022-10-23T23:17:51.188Z,95630.72
2022-10-23T23:20:20.741Z,95624.66
2022-10-23T23:22:50.125Z,95639.31
2022-10-23T23:25:19.681Z,95652.72
2022-10-23T23:27:49.095Z,95652.09
2022-10-23T23:30:18.765Z,95641.06
2022-10-23T23:32:52.610Z,95631.06
2022-10-23T23:35:22.440Z,95631.22
2022-10-23T23:37:52.077Z,95631.09
2022-10-23T23:40:21.448Z,95628.22
2022-10-23T23:42:50.848Z,95627.78
2022-10-23T23:45:20.674Z,95631.88
2022-10-23T23:47:51.468Z,95634.88
2022-10-23T23:50:21.284Z,95650.50
2022-10-23T23:52:50.652Z,95656.59
2022-10-23T23:55:20.381Z,95658.03
2022-10-23T23:57:49.741Z,95658.72
